Time;durP1;ratioP1;P1;durP2;ratioP2;P2;SDS_P1;SDS_P2;PMS_P1;PMS_P2;Temp;Humidity;BMP_temperature;BMP_pressure;BME280_temperature;BME280_humidity;BME280_pressure;Samples;Min_cycle;Max_cycle;Signal;HPM_P1;HPM_P2
2021/12/16 00:01:52;;;;;;;345.08;75.13;;;;;;;;;;5056221;28;20502;-86
2021/12/16 00:29:18;;;;;;;392.60;74.30;;;;;;;;;;5049103;28;20043;-86
2021/12/16 00:34:15;;;;;;;257.65;67.20;;;;;;;;;;5054052;28;20048;-86
2021/12/16 00:36:42;;;;;;;242.43;62.65;;;;;;;;;;5057295;28;20085;-87
2021/12/16 00:39:19;;;;;;;201.77;60.28;;;;;;;;;;5055798;28;20370;-86
2021/12/16 00:41:48;;;;;;;185.65;56.70;;;;;;;;;;5054423;28;20017;-86
2021/12/16 00:49:42;;;;;;;211.35;62.55;;;;;;;;;;5055782;28;20040;-88
2021/12/16 00:55:10;;;;;;;186.18;58.72;;;;;;;;;;5052001;28;20074;-86
2021/12/16 00:57:38;;;;;;;195.57;58.35;;;;;;;;;;5070846;28;20035;-86
2021/12/16 01:00:06;;;;;;;211.70;59.92;;;;;;;;;;5050642;28;20443;-89
2021/12/16 01:03:25;;;;;;;204.27;60.50;;;;;;;;;;5054738;28;20013;-87
2021/12/16 01:08:23;;;;;;;186.45;59.70;;;;;;;;;;5051098;28;20086;-85
2021/12/16 01:36:08;;;;;;;181.80;54.47;;;;;;;;;;5046394;28;20071;-85
2021/12/16 01:42:02;;;;;;;183.98;56.83;;;;;;;;;;5058214;28;20051;-85
2021/12/16 01:47:15;;;;;;;177.77;57.75;;;;;;;;;;5047653;28;20083;-87
2021/12/16 01:50:08;;;;;;;205.75;64.10;;;;;;;;;;5052397;28;20055;-85
2021/12/16 01:57:54;;;;;;;216.38;65.05;;;;;;;;;;5044931;28;20073;-85
2021/12/16 02:00:43;;;;;;;228.13;65.35;;;;;;;;;;5052484;28;20128;-85
2021/12/16 02:03:10;;;;;;;198.95;62.08;;;;;;;;;;5044081;28;20047;-86
2021/12/16 02:08:27;;;;;;;203.45;61.33;;;;;;;;;;5051055;28;20037;-85
2021/12/16 02:11:07;;;;;;;227.77;68.47;;;;;;;;;;5052979;28;20017;-85
2021/12/16 02:27:35;;;;;;;205.52;61.10;;;;;;;;;;5050493;28;20099;-86
2021/12/16 02:37:54;;;;;;;212.20;63.25;;;;;;;;;;5051196;28;20605;-85
2021/12/16 02:40:20;;;;;;;159.02;54.53;;;;;;;;;;5051226;28;20070;-85
2021/12/16 02:43:02;;;;;;;181.13;57.85;;;;;;;;;;5048859;28;20032;-85
2021/12/16 02:48:33;;;;;;;261.23;79.22;;;;;;;;;;5035743;28;20375;-85
2021/12/16 02:51:01;;;;;;;226.60;67.07;;;;;;;;;;5051050;28;20009;-85
2021/12/16 02:53:28;;;;;;;233.85;70.90;;;;;;;;;;5051721;28;20355;-85
2021/12/16 02:55:54;;;;;;;218.98;63.47;;;;;;;;;;5051075;28;20021;-86
2021/12/16 02:58:21;;;;;;;231.57;67.57;;;;;;;;;;5051190;28;20123;-86
2021/12/16 03:00:50;;;;;;;218.52;65.50;;;;;;;;;;5052280;28;20021;-85
2021/12/16 03:03:17;;;;;;;219.80;66.97;;;;;;;;;;5048403;28;20017;-85
2021/12/16 03:05:44;;;;;;;212.45;65.63;;;;;;;;;;5048310;28;20029;-85
2021/12/16 03:08:13;;;;;;;210.52;66.70;;;;;;;;;;4706289;28;10000252;-86
2021/12/16 03:16:26;;;;;;;176.60;59.70;;;;;;;;;;5032799;28;20486;-86
2021/12/16 03:19:10;;;;;;;187.45;61.88;;;;;;;;;;5052291;28;20020;-85
2021/12/16 03:21:43;;;;;;;185.45;59.35;;;;;;;;;;5068535;28;20363;-85
2021/12/16 03:30:03;;;;;;;196.68;65.85;;;;;;;;;;5037097;28;20091;-85
2021/12/16 03:35:29;;;;;;;238.82;79.20;;;;;;;;;;5051040;28;20052;-85
2021/12/16 03:37:57;;;;;;;272.65;87.00;;;;;;;;;;5052460;28;20044;-85
2021/12/16 03:40:25;;;;;;;299.98;95.35;;;;;;;;;;5060851;28;20020;-85
2021/12/16 03:42:58;;;;;;;295.70;97.68;;;;;;;;;;5066048;28;20016;-85
2021/12/16 03:48:22;;;;;;;219.30;79.20;;;;;;;;;;5054800;28;20504;-85
2021/12/16 03:50:48;;;;;;;247.40;84.65;;;;;;;;;;5069708;28;20356;-85
2021/12/16 03:53:16;;;;;;;244.57;86.50;;;;;;;;;;5040967;28;20439;-85
2021/12/16 03:55:44;;;;;;;289.92;100.50;;;;;;;;;;5054835;28;20017;-85
2021/12/16 03:58:10;;;;;;;253.70;91.90;;;;;;;;;;5053016;28;20033;-85
2021/12/16 04:00:41;;;;;;;270.88;94.32;;;;;;;;;;5042879;28;20017;-85
2021/12/16 04:03:08;;;;;;;299.95;100.93;;;;;;;;;;5055492;28;20021;-86
2021/12/16 04:05:35;;;;;;;276.92;94.18;;;;;;;;;;5056086;28;20044;-86
2021/12/16 04:08:01;;;;;;;278.98;91.78;;;;;;;;;;4352152;28;10000390;-87
2021/12/16 04:10:35;;;;;;;257.42;90.78;;;;;;;;;;5054890;28;20013;-86
2021/12/16 04:13:04;;;;;;;284.90;93.05;;;;;;;;;;5055497;28;20052;-86
2021/12/16 04:15:30;;;;;;;281.70;92.65;;;;;;;;;;5050628;28;20336;-87
2021/12/16 04:17:57;;;;;;;286.08;96.07;;;;;;;;;;5047167;28;20067;-85
2021/12/16 04:20:23;;;;;;;279.52;91.93;;;;;;;;;;5041088;28;20060;-86
2021/12/16 04:22:51;;;;;;;269.58;87.05;;;;;;;;;;5040475;28;20093;-86
2021/12/16 04:25:22;;;;;;;284.63;91.65;;;;;;;;;;5044208;28;20017;-86
2021/12/16 04:27:50;;;;;;;262.38;87.35;;;;;;;;;;5042635;28;20486;-85
2021/12/16 04:30:17;;;;;;;257.85;83.18;;;;;;;;;;5051725;28;20017;-84
2021/12/16 04:32:45;;;;;;;262.63;87.03;;;;;;;;;;5049058;28;20467;-84
2021/12/16 04:35:12;;;;;;;283.50;89.35;;;;;;;;;;4701796;28;10001244;-84
2021/12/16 04:37:38;;;;;;;267.65;87.80;;;;;;;;;;5053050;28;20112;-84
2021/12/16 04:40:08;;;;;;;257.38;85.75;;;;;;;;;;5054575;28;20467;-83
2021/12/16 04:42:36;;;;;;;256.63;85.95;;;;;;;;;;5038803;28;20357;-83
2021/12/16 04:45:04;;;;;;;261.77;88.95;;;;;;;;;;5039854;28;20025;-84
2021/12/16 04:47:30;;;;;;;280.95;91.30;;;;;;;;;;5061177;28;20016;-83
2021/12/16 04:49:57;;;;;;;282.58;93.30;;;;;;;;;;5054292;28;20020;-84
2021/12/16 04:52:23;;;;;;;291.33;93.88;;;;;;;;;;5054314;28;20024;-83
2021/12/16 04:54:49;;;;;;;272.63;89.47;;;;;;;;;;5054190;28;20021;-83
2021/12/16 04:57:16;;;;;;;265.52;91.30;;;;;;;;;;5051394;28;20400;-83
2021/12/16 04:59:43;;;;;;;254.27;90.80;;;;;;;;;;5053976;28;20025;-84
2021/12/16 05:02:15;;;;;;;247.77;87.55;;;;;;;;;;5053943;28;20013;-83
2021/12/16 05:04:42;;;;;;;287.67;91.72;;;;;;;;;;5049914;28;20460;-83
2021/12/16 05:07:08;;;;;;;255.00;86.68;;;;;;;;;;5040194;28;20031;-83
2021/12/16 05:12:09;;;;;;;270.73;86.55;;;;;;;;;;5043815;28;20079;-84
2021/12/16 05:14:35;;;;;;;277.55;89.07;;;;;;;;;;5054114;28;20017;-83
2021/12/16 05:17:06;;;;;;;268.45;88.18;;;;;;;;;;5054848;28;20028;-83
2021/12/16 05:19:32;;;;;;;231.50;75.50;;;;;;;;;;5053670;28;20471;-83
2021/12/16 05:24:14;;;;;;;211.23;76.22;;;;;;;;;;5053665;28;20053;-83
2021/12/16 05:24:45;;;;;;;221.35;73.40;;;;;;;;;;5054878;28;20057;-84
2021/12/16 05:27:12;;;;;;;249.05;79.82;;;;;;;;;;5053786;28;20074;-83
2021/12/16 05:29:39;;;;;;;218.05;77.60;;;;;;;;;;5055427;28;20028;-84
2021/12/16 05:32:06;;;;;;;221.63;74.32;;;;;;;;;;5049032;28;20066;-84
2021/12/16 05:34:32;;;;;;;213.77;73.35;;;;;;;;;;5060947;28;20075;-84
2021/12/16 05:36:59;;;;;;;234.88;75.55;;;;;;;;;;5040275;28;20036;-83
2021/12/16 05:39:26;;;;;;;239.15;78.15;;;;;;;;;;5049981;28;20467;-83
2021/12/16 05:41:53;;;;;;;249.55;79.65;;;;;;;;;;5051098;28;20024;-84
2021/12/16 05:44:19;;;;;;;219.48;76.60;;;;;;;;;;5034465;28;20024;-84
2021/12/16 05:46:46;;;;;;;214.98;73.80;;;;;;;;;;5048031;28;20025;-84
2021/12/16 05:49:14;;;;;;;243.82;79.63;;;;;;;;;;5052857;28;20058;-83
2021/12/16 05:51:42;;;;;;;247.20;82.78;;;;;;;;;;5051713;28;20749;-83
2021/12/16 05:54:09;;;;;;;245.98;81.43;;;;;;;;;;5044961;28;20395;-84
2021/12/16 05:56:37;;;;;;;245.70;85.00;;;;;;;;;;5055275;28;20043;-85
2021/12/16 05:59:13;;;;;;;247.68;81.43;;;;;;;;;;5052006;28;20115;-86
2021/12/16 06:01:40;;;;;;;245.73;83.40;;;;;;;;;;5067513;28;20406;-86
2021/12/16 06:04:08;;;;;;;234.18;78.13;;;;;;;;;;5050514;28;20032;-85
2021/12/16 06:06:34;;;;;;;241.75;80.00;;;;;;;;;;5060103;28;20059;-85
2021/12/16 06:09:01;;;;;;;271.42;92.47;;;;;;;;;;5057710;28;20032;-85
2021/12/16 06:11:30;;;;;;;246.35;81.10;;;;;;;;;;5038439;28;20021;-86
2021/12/16 06:22:41;;;;;;;233.05;79.93;;;;;;;;;;5058193;28;20370;-85
2021/12/16 06:28:02;;;;;;;255.20;86.28;;;;;;;;;;5053384;28;20179;-85
2021/12/16 06:30:29;;;;;;;246.18;86.72;;;;;;;;;;5052899;28;20029;-86
2021/12/16 06:32:56;;;;;;;252.75;86.78;;;;;;;;;;5045300;28;20359;-86
2021/12/16 06:35:23;;;;;;;246.88;83.07;;;;;;;;;;5053411;28;20013;-85
2021/12/16 06:37:49;;;;;;;231.52;84.13;;;;;;;;;;5069246;28;20104;-86
2021/12/16 06:40:16;;;;;;;234.63;81.40;;;;;;;;;;5069161;28;20025;-87
2021/12/16 06:42:43;;;;;;;227.77;81.53;;;;;;;;;;5052531;28;20017;-86
2021/12/16 06:45:16;;;;;;;249.73;86.22;;;;;;;;;;5068855;28;20017;-85
2021/12/16 06:50:13;;;;;;;231.73;79.25;;;;;;;;;;5053386;28;20032;-85
2021/12/16 06:52:45;;;;;;;222.57;78.68;;;;;;;;;;5053734;28;20098;-85
2021/12/16 06:56:03;;;;;;;232.23;82.10;;;;;;;;;;5053890;28;20040;-85
2021/12/16 06:58:10;;;;;;;246.23;82.18;;;;;;;;;;5028818;28;20364;-86
2021/12/16 07:00:42;;;;;;;246.70;82.50;;;;;;;;;;5069237;28;20020;-86
2021/12/16 07:03:18;;;;;;;242.00;79.57;;;;;;;;;;5053715;28;20009;-85
2021/12/16 07:05:45;;;;;;;231.75;79.78;;;;;;;;;;5068981;28;20053;-85
2021/12/16 07:08:13;;;;;;;253.80;83.82;;;;;;;;;;5072748;28;20017;-86
2021/12/16 07:10:44;;;;;;;240.43;80.93;;;;;;;;;;5035133;28;20026;-85
2021/12/16 07:13:17;;;;;;;236.06;77.34;;;;;;;;;;4341491;28;10001442;-86
2021/12/16 07:15:43;;;;;;;247.20;80.65;;;;;;;;;;5051766;28;20025;-85
2021/12/16 07:18:11;;;;;;;229.77;81.65;;;;;;;;;;5051683;28;20071;-85
2021/12/16 07:20:38;;;;;;;234.35;82.95;;;;;;;;;;5068375;28;20063;-86
2021/12/16 07:23:06;;;;;;;230.25;82.75;;;;;;;;;;5068360;28;20028;-86
2021/12/16 07:25:33;;;;;;;234.05;82.75;;;;;;;;;;5067765;28;20028;-85
2021/12/16 07:27:59;;;;;;;244.02;83.15;;;;;;;;;;5052993;28;20099;-86
2021/12/16 07:30:26;;;;;;;222.70;79.50;;;;;;;;;;5052079;28;20017;-85
2021/12/16 07:32:52;;;;;;;242.90;82.28;;;;;;;;;;5052184;28;20070;-84
2021/12/16 07:35:21;;;;;;;222.63;78.13;;;;;;;;;;5053007;28;20024;-85
2021/12/16 07:37:48;;;;;;;230.07;81.43;;;;;;;;;;5053964;28;20119;-85
2021/12/16 07:40:16;;;;;;;249.43;81.20;;;;;;;;;;5059499;28;20532;-86
2021/12/16 07:42:58;;;;;;;228.35;80.13;;;;;;;;;;5070424;28;20013;-84
2021/12/16 07:45:25;;;;;;;230.02;78.63;;;;;;;;;;5056806;28;20029;-85
2021/12/16 07:47:51;;;;;;;227.85;77.93;;;;;;;;;;5051824;28;20013;-85
2021/12/16 07:50:18;;;;;;;228.02;79.18;;;;;;;;;;5052071;28;20023;-85
2021/12/16 07:52:45;;;;;;;217.73;78.45;;;;;;;;;;5052049;28;20075;-84
2021/12/16 07:55:12;;;;;;;248.18;81.90;;;;;;;;;;5060433;28;20017;-84
2021/12/16 07:57:40;;;;;;;250.07;85.78;;;;;;;;;;5056494;28;20028;-85
2021/12/16 08:00:08;;;;;;;225.63;78.68;;;;;;;;;;5057116;28;20061;-85
2021/12/16 08:02:37;;;;;;;224.65;77.35;;;;;;;;;;5036007;28;20754;-85
2021/12/16 08:05:04;;;;;;;208.10;76.10;;;;;;;;;;5055094;28;20075;-84
2021/12/16 08:07:31;;;;;;;211.18;72.10;;;;;;;;;;5071897;28;20024;-85
2021/12/16 08:09:57;;;;;;;210.32;72.88;;;;;;;;;;5068718;28;20029;-85
2021/12/16 08:12:23;;;;;;;237.00;77.68;;;;;;;;;;4702883;28;10000496;-90
2021/12/16 08:14:50;;;;;;;230.45;74.93;;;;;;;;;;5051447;28;20469;-85
2021/12/16 08:17:16;;;;;;;213.65;73.82;;;;;;;;;;5054352;28;20031;-87
2021/12/16 08:19:45;;;;;;;238.40;79.07;;;;;;;;;;5071646;28;20025;-87
2021/12/16 08:22:12;;;;;;;234.88;83.47;;;;;;;;;;5055079;28;20467;-86
2021/12/16 08:24:39;;;;;;;238.48;81.35;;;;;;;;;;5054913;28;20017;-86
2021/12/16 08:27:05;;;;;;;231.35;78.57;;;;;;;;;;5054418;28;20021;-86
2021/12/16 08:29:32;;;;;;;251.98;85.70;;;;;;;;;;5054854;28;20028;-86
2021/12/16 08:31:58;;;;;;;277.88;92.03;;;;;;;;;;5071372;28;20053;-86
2021/12/16 08:34:27;;;;;;;262.42;91.10;;;;;;;;;;5055339;28;20049;-87
2021/12/16 08:36:54;;;;;;;263.90;86.90;;;;;;;;;;5054323;28;20056;-87
2021/12/16 08:39:22;;;;;;;274.58;92.35;;;;;;;;;;5055803;28;20416;-85
2021/12/16 08:41:50;;;;;;;288.00;96.78;;;;;;;;;;5056017;28;20341;-87
2021/12/16 08:44:20;;;;;;;282.10;93.18;;;;;;;;;;5052452;28;20029;-87
2021/12/16 08:46:50;;;;;;;268.58;88.07;;;;;;;;;;5052826;28;20424;-87
2021/12/16 08:49:16;;;;;;;273.35;95.75;;;;;;;;;;5056053;28;20024;-87
2021/12/16 08:51:46;;;;;;;300.60;99.60;;;;;;;;;;5053844;28;20359;-86
2021/12/16 08:54:12;;;;;;;305.77;102.75;;;;;;;;;;5054621;28;20035;-86
2021/12/16 08:56:40;;;;;;;323.75;105.10;;;;;;;;;;4357193;28;10000286;-86
2021/12/16 08:59:06;;;;;;;315.80;106.57;;;;;;;;;;5054613;28;20048;-87
2021/12/16 09:01:35;;;;;;;348.20;112.03;;;;;;;;;;5053125;28;20029;-86
2021/12/16 09:04:02;;;;;;;343.27;113.25;;;;;;;;;;5054550;28;20359;-87
2021/12/16 09:06:28;;;;;;;325.15;109.75;;;;;;;;;;5065927;28;20060;-86
2021/12/16 09:08:56;;;;;;;353.73;116.93;;;;;;;;;;5052085;28;20031;-87
2021/12/16 09:11:24;;;;;;;340.13;114.30;;;;;;;;;;5052694;28;20037;-86
2021/12/16 09:13:52;;;;;;;357.88;119.15;;;;;;;;;;5049461;28;20049;-87
2021/12/16 09:16:20;;;;;;;343.60;118.82;;;;;;;;;;5053636;28;20023;-88
2021/12/16 09:18:47;;;;;;;392.52;133.35;;;;;;;;;;5051024;28;20045;-86
2021/12/16 09:21:15;;;;;;;410.20;136.18;;;;;;;;;;5053556;28;20028;-86
2021/12/16 09:23:43;;;;;;;404.83;136.68;;;;;;;;;;4701821;28;10000272;-87
2021/12/16 09:26:09;;;;;;;415.38;136.60;;;;;;;;;;5051635;28;20021;-86
2021/12/16 09:28:47;;;;;;;393.75;134.32;;;;;;;;;;5082074;28;20017;-84
2021/12/16 09:31:15;;;;;;;412.58;136.07;;;;;;;;;;5062326;28;20104;-85
2021/12/16 09:33:44;;;;;;;404.85;135.32;;;;;;;;;;5036686;28;20021;-85
2021/12/16 09:36:12;;;;;;;436.85;141.25;;;;;;;;;;5052629;28;20021;-87
2021/12/16 09:38:38;;;;;;;408.90;137.02;;;;;;;;;;5053154;28;20125;-85
2021/12/16 09:41:05;;;;;;;457.25;148.38;;;;;;;;;;5063221;28;20597;-87
2021/12/16 09:43:33;;;;;;;445.02;146.63;;;;;;;;;;4703588;28;10000429;-85
2021/12/16 09:46:02;;;;;;;443.60;146.88;;;;;;;;;;5052192;28;20025;-86
2021/12/16 09:48:31;;;;;;;443.35;147.20;;;;;;;;;;5067789;28;20438;-87
2021/12/16 09:50:57;;;;;;;462.77;152.27;;;;;;;;;;5054381;28;20028;-85
2021/12/16 09:53:24;;;;;;;492.27;158.13;;;;;;;;;;5053012;28;20021;-86
2021/12/16 09:55:58;;;;;;;466.90;154.75;;;;;;;;;;5052063;28;20735;-86
2021/12/16 09:58:24;;;;;;;460.63;156.45;;;;;;;;;;5053750;28;20121;-85
2021/12/16 10:00:50;;;;;;;477.77;156.90;;;;;;;;;;5052342;28;20032;-86
2021/12/16 10:03:17;;;;;;;463.75;155.77;;;;;;;;;;5048454;28;20032;-86
2021/12/16 10:05:44;;;;;;;498.13;164.50;;;;;;;;;;5048572;28;20481;-86
2021/12/16 10:08:12;;;;;;;504.92;165.45;;;;;;;;;;5063969;28;20025;-87
2021/12/16 10:10:39;;;;;;;471.08;162.02;;;;;;;;;;5052665;28;20025;-86
2021/12/16 10:13:14;;;;;;;501.74;167.56;;;;;;;;;;4912428;28;10001273;-89
2021/12/16 10:18:12;;;;;;;510.98;170.38;;;;;;;;;;5040411;28;20511;-85
2021/12/16 10:20:59;;;;;;;526.15;180.13;;;;;;;;;;5051474;28;20025;-86
2021/12/16 10:23:27;;;;;;;501.80;170.00;;;;;;;;;;5056334;28;20031;-89
2021/12/16 10:26:02;;;;;;;540.55;182.18;;;;;;;;;;5049124;28;20025;-86
2021/12/16 10:28:30;;;;;;;504.23;172.32;;;;;;;;;;5050939;28;20048;-85
2021/12/16 10:31:15;;;;;;;530.13;176.88;;;;;;;;;;5051444;28;20017;-85
2021/12/16 10:33:47;;;;;;;512.95;171.18;;;;;;;;;;5050979;28;20456;-86
2021/12/16 10:36:19;;;;;;;534.90;182.52;;;;;;;;;;5052137;28;20017;-86
2021/12/16 10:38:48;;;;;;;501.27;174.80;;;;;;;;;;5050395;28;20112;-86
2021/12/16 10:41:19;;;;;;;564.83;184.88;;;;;;;;;;5047400;28;20017;-86
2021/12/16 10:43:47;;;;;;;504.55;170.85;;;;;;;;;;5051362;28;20024;-85
2021/12/16 10:46:34;;;;;;;549.28;184.30;;;;;;;;;;5047716;28;20025;-86
2021/12/16 10:49:02;;;;;;;602.42;200.98;;;;;;;;;;5048162;28;20059;-86
2021/12/16 10:51:33;;;;;;;550.30;191.32;;;;;;;;;;5044773;28;20052;-86
2021/12/16 10:54:01;;;;;;;598.97;202.38;;;;;;;;;;5063129;28;20028;-86
2021/12/16 10:56:30;;;;;;;599.17;205.48;;;;;;;;;;5050304;28;20017;-86
2021/12/16 10:59:01;;;;;;;563.20;197.43;;;;;;;;;;5048836;28;20083;-87
2021/12/16 11:01:32;;;;;;;622.08;214.18;;;;;;;;;;5065376;28;20100;-86
2021/12/16 11:03:59;;;;;;;609.70;210.65;;;;;;;;;;5061425;28;20024;-88
2021/12/16 11:06:28;;;;;;;599.85;213.35;;;;;;;;;;5052068;28;20070;-87
2021/12/16 11:08:55;;;;;;;607.85;221.90;;;;;;;;;;5057673;28;20024;-86
2021/12/16 11:11:29;;;;;;;610.55;218.93;;;;;;;;;;5052253;28;20090;-87
2021/12/16 11:14:05;;;;;;;627.47;223.68;;;;;;;;;;5052861;28;20429;-88
2021/12/16 11:16:33;;;;;;;636.85;231.48;;;;;;;;;;5050929;28;20379;-86
2021/12/16 11:19:00;;;;;;;590.03;219.52;;;;;;;;;;5051729;28;20344;-86
2021/12/16 11:21:40;;;;;;;631.30;221.00;;;;;;;;;;5040714;28;20045;-88
2021/12/16 11:24:25;;;;;;;595.83;217.13;;;;;;;;;;5042522;28;20029;-85
2021/12/16 11:26:52;;;;;;;574.28;201.48;;;;;;;;;;5052741;28;20033;-86
2021/12/16 11:29:19;;;;;;;564.97;197.98;;;;;;;;;;5051136;28;20018;-85
2021/12/16 11:31:51;;;;;;;582.08;201.48;;;;;;;;;;5054888;28;20036;-92
2021/12/16 11:34:19;;;;;;;592.58;198.00;;;;;;;;;;5053284;28;20121;-86
2021/12/16 11:36:47;;;;;;;627.13;220.60;;;;;;;;;;5052612;28;20025;-86
2021/12/16 11:39:18;;;;;;;601.45;208.70;;;;;;;;;;5053009;28;20025;-86
2021/12/16 11:41:46;;;;;;;580.80;209.48;;;;;;;;;;5053571;28;20108;-86
2021/12/16 11:44:23;;;;;;;603.85;209.68;;;;;;;;;;5052316;28;20025;-86
2021/12/16 11:47:08;;;;;;;589.63;206.45;;;;;;;;;;5051908;28;20079;-86
2021/12/16 11:49:35;;;;;;;620.85;208.15;;;;;;;;;;5054256;28;20036;-85
2021/12/16 11:52:04;;;;;;;601.90;209.23;;;;;;;;;;5061243;28;20055;-88
2021/12/16 11:54:34;;;;;;;603.83;205.75;;;;;;;;;;5054049;28;20160;-86
2021/12/16 11:57:05;;;;;;;587.17;193.85;;;;;;;;;;5054036;28;20103;-87
2021/12/16 11:59:37;;;;;;;576.10;189.30;;;;;;;;;;5054616;28;20063;-85
2021/12/16 12:02:04;;;;;;;542.30;176.52;;;;;;;;;;5054248;28;20036;-85
2021/12/16 12:04:37;;;;;;;547.25;179.68;;;;;;;;;;5071305;28;20020;-86
2021/12/16 12:07:14;;;;;;;525.65;173.13;;;;;;;;;;5069052;28;20028;-85
2021/12/16 12:09:45;;;;;;;544.45;179.77;;;;;;;;;;5055185;28;20471;-85
2021/12/16 12:12:12;;;;;;;519.35;174.82;;;;;;;;;;5055195;28;20021;-84
2021/12/16 12:14:39;;;;;;;520.55;169.77;;;;;;;;;;5071604;28;20475;-85
2021/12/16 12:17:11;;;;;;;523.08;166.70;;;;;;;;;;5073931;28;20033;-84
2021/12/16 12:19:45;;;;;;;502.05;165.27;;;;;;;;;;5054414;28;20044;-85
2021/12/16 12:22:11;;;;;;;490.67;162.05;;;;;;;;;;5056846;28;20021;-84
2021/12/16 12:24:40;;;;;;;455.08;151.30;;;;;;;;;;5056285;28;20029;-85
2021/12/16 12:27:11;;;;;;;452.50;150.65;;;;;;;;;;5071219;28;20059;-87
2021/12/16 12:29:43;;;;;;;439.88;152.32;;;;;;;;;;5073159;28;20044;-85
2021/12/16 12:32:14;;;;;;;442.70;148.55;;;;;;;;;;5078052;28;20021;-85
2021/12/16 12:34:43;;;;;;;458.02;156.57;;;;;;;;;;5048253;28;20028;-85
2021/12/16 12:37:12;;;;;;;448.40;158.95;;;;;;;;;;5054124;28;20498;-87
2021/12/16 12:39:42;;;;;;;483.92;162.20;;;;;;;;;;5053249;28;20027;-85
2021/12/16 12:42:11;;;;;;;492.85;167.93;;;;;;;;;;5070615;28;20053;-85
2021/12/16 12:44:38;;;;;;;459.00;160.45;;;;;;;;;;5067925;28;20493;-85
2021/12/16 12:47:12;;;;;;;464.98;169.23;;;;;;;;;;5053268;28;20032;-85
2021/12/16 12:49:39;;;;;;;507.92;184.77;;;;;;;;;;5052339;28;20052;-85
2021/12/16 12:52:14;;;;;;;485.48;175.40;;;;;;;;;;5053816;28;20016;-85
2021/12/16 12:54:43;;;;;;;500.83;178.45;;;;;;;;;;5051580;28;20028;-85
2021/12/16 12:57:21;;;;;;;506.98;184.07;;;;;;;;;;5036891;28;20033;-85
2021/12/16 12:59:47;;;;;;;503.40;180.57;;;;;;;;;;5070010;28;20474;-84
2021/12/16 13:02:20;;;;;;;498.85;181.38;;;;;;;;;;5054190;28;20057;-85
2021/12/16 13:05:07;;;;;;;521.20;190.20;;;;;;;;;;5046887;28;20068;-85
2021/12/16 13:07:36;;;;;;;471.60;169.00;;;;;;;;;;5050208;28;20025;-85
2021/12/16 13:10:22;;;;;;;467.92;173.60;;;;;;;;;;5038730;28;20368;-85
2021/12/16 13:13:02;;;;;;;488.98;171.30;;;;;;;;;;5076782;28;20040;-84
2021/12/16 13:23:32;;;;;;;463.58;161.80;;;;;;;;;;5055319;28;20431;-84
2021/12/16 13:26:33;;;;;;;448.40;149.02;;;;;;;;;;5050621;28;20359;-84
2021/12/16 13:29:02;;;;;;;440.92;155.15;;;;;;;;;;5059325;28;20048;-84
2021/12/16 13:31:34;;;;;;;441.42;153.73;;;;;;;;;;5049887;28;20040;-85
2021/12/16 13:34:02;;;;;;;443.50;151.50;;;;;;;;;;5055552;28;20384;-84
2021/12/16 13:36:41;;;;;;;451.02;156.60;;;;;;;;;;5053910;28;20458;-83
2021/12/16 13:39:22;;;;;;;430.60;152.30;;;;;;;;;;5061365;28;20058;-83
2021/12/16 13:41:54;;;;;;;411.77;145.73;;;;;;;;;;5065340;28;20021;-84
2021/12/16 13:44:35;;;;;;;438.95;155.35;;;;;;;;;;5062607;28;20051;-84
2021/12/16 13:47:20;;;;;;;479.02;159.10;;;;;;;;;;5044318;28;20475;-84
2021/12/16 13:58:52;;;;;;;464.85;154.90;;;;;;;;;;5049621;28;20135;-84
2021/12/16 14:04:37;;;;;;;448.98;156.77;;;;;;;;;;5059070;28;20042;-84
2021/12/16 14:06:40;;;;;;;465.63;158.27;;;;;;;;;;5053847;28;20021;-85
2021/12/16 14:09:18;;;;;;;453.35;155.82;;;;;;;;;;4702855;28;10000811;-85
2021/12/16 14:12:47;;;;;;;457.98;158.93;;;;;;;;;;5047960;28;20136;-84
2021/12/16 14:14:49;;;;;;;398.35;137.18;;;;;;;;;;5052093;28;20040;-84
2021/12/16 14:23:34;;;;;;;428.80;145.23;;;;;;;;;;5049589;28;20048;-84
2021/12/16 14:26:34;;;;;;;464.15;148.27;;;;;;;;;;5047186;28;20499;-85
2021/12/16 14:42:49;;;;;;;459.02;157.32;;;;;;;;;;5039335;28;20029;-84
2021/12/16 14:45:41;;;;;;;470.30;155.38;;;;;;;;;;5052228;28;20021;-84
2021/12/16 14:50:51;;;;;;;457.48;151.10;;;;;;;;;;5053125;28;20506;-84
2021/12/16 14:53:19;;;;;;;488.83;160.32;;;;;;;;;;5049713;28;20022;-84
2021/12/16 14:55:48;;;;;;;476.58;157.70;;;;;;;;;;5051101;28;20111;-87
2021/12/16 14:58:31;;;;;;;454.58;148.07;;;;;;;;;;4700671;28;10000232;-85
2021/12/16 15:01:00;;;;;;;436.35;145.45;;;;;;;;;;5066571;28;20029;-85
2021/12/16 15:03:34;;;;;;;455.98;146.20;;;;;;;;;;5052096;28;20100;-84
2021/12/16 15:06:04;;;;;;;499.42;153.93;;;;;;;;;;5051802;28;20035;-85
2021/12/16 15:08:47;;;;;;;451.40;149.48;;;;;;;;;;5039134;28;20033;-84
2021/12/16 15:11:17;;;;;;;475.27;150.77;;;;;;;;;;5048451;28;20017;-83
2021/12/16 15:13:53;;;;;;;468.73;153.07;;;;;;;;;;5053924;28;20049;-85
2021/12/16 15:35:03;;;;;;;472.80;161.13;;;;;;;;;;5053447;28;20104;-84
2021/12/16 15:38:32;;;;;;;471.95;161.15;;;;;;;;;;5053058;28;20048;-84
2021/12/16 15:43:52;;;;;;;499.45;173.23;;;;;;;;;;5051808;28;20052;-89
2021/12/16 15:46:19;;;;;;;510.38;184.93;;;;;;;;;;5051059;28;20021;-84
2021/12/16 15:48:54;;;;;;;518.80;202.30;;;;;;;;;;5051127;28;20049;-85
2021/12/16 15:51:23;;;;;;;504.23;199.35;;;;;;;;;;5052046;28;20017;-84
2021/12/16 15:53:53;;;;;;;522.08;205.40;;;;;;;;;;5051095;28;20108;-84
2021/12/16 15:56:21;;;;;;;488.63;187.77;;;;;;;;;;5035290;28;20021;-84
2021/12/16 15:58:53;;;;;;;492.27;185.15;;;;;;;;;;5051397;28;20024;-85
2021/12/16 16:01:38;;;;;;;467.88;175.27;;;;;;;;;;5051361;28;20055;-84
2021/12/16 16:04:26;;;;;;;458.00;169.82;;;;;;;;;;5054739;28;20404;-85
2021/12/16 16:06:56;;;;;;;446.48;165.75;;;;;;;;;;5060931;28;20040;-83
2021/12/16 16:09:22;;;;;;;442.83;163.20;;;;;;;;;;5050979;28;20013;-85
2021/12/16 16:11:52;;;;;;;397.42;150.55;;;;;;;;;;5034411;28;20025;-85
2021/12/16 16:14:20;;;;;;;390.65;148.25;;;;;;;;;;5043319;28;20041;-85
2021/12/16 16:16:53;;;;;;;374.33;137.68;;;;;;;;;;5062629;28;20017;-84
2021/12/16 16:19:27;;;;;;;341.52;132.30;;;;;;;;;;5054687;28;20025;-85
2021/12/16 16:21:56;;;;;;;345.05;130.60;;;;;;;;;;5054656;28;20028;-85
2021/12/16 16:24:30;;;;;;;336.40;126.13;;;;;;;;;;5050885;28;20032;-85
2021/12/16 16:26:58;;;;;;;357.02;128.15;;;;;;;;;;5053305;28;20104;-85
2021/12/16 16:29:26;;;;;;;300.20;118.72;;;;;;;;;;5054554;28;20021;-86
2021/12/16 16:31:53;;;;;;;313.67;119.18;;;;;;;;;;5054490;28;20025;-86
2021/12/16 16:34:31;;;;;;;286.08;108.82;;;;;;;;;;5054233;28;20111;-85
2021/12/16 16:37:06;;;;;;;277.42;111.75;;;;;;;;;;5053734;28;20028;-86
2021/12/16 16:39:36;;;;;;;263.50;104.53;;;;;;;;;;5050747;28;20041;-85
2021/12/16 16:45:07;;;;;;;283.13;112.35;;;;;;;;;;5130968;27;20449;-83
2021/12/16 16:47:40;;;;;;;275.63;114.05;;;;;;;;;;5110399;28;20116;-83
2021/12/16 16:50:17;;;;;;;291.67;116.70;;;;;;;;;;5092369;28;20110;-83
2021/12/16 16:52:46;;;;;;;280.73;112.40;;;;;;;;;;5095958;28;20024;-83
2021/12/16 16:55:34;;;;;;;254.65;102.95;;;;;;;;;;5109451;28;20547;-81
2021/12/16 16:58:06;;;;;;;261.63;102.25;;;;;;;;;;5129283;28;20023;-81
2021/12/16 17:00:38;;;;;;;287.48;112.45;;;;;;;;;;5130041;27;20052;-81
2021/12/16 17:03:07;;;;;;;374.17;146.60;;;;;;;;;;5130825;27;20404;-82
2021/12/16 17:05:35;;;;;;;369.27;141.68;;;;;;;;;;5116776;28;20028;-81
2021/12/16 17:08:04;;;;;;;353.05;143.63;;;;;;;;;;5122096;28;20477;-82
2021/12/16 17:10:44;;;;;;;432.20;163.02;;;;;;;;;;5108975;28;20118;-81
2021/12/16 17:13:15;;;;;;;431.42;168.77;;;;;;;;;;5127918;27;20514;-81
2021/12/16 17:18:28;;;;;;;519.13;210.05;;;;;;;;;;5115487;28;20030;-81
2021/12/16 17:20:57;;;;;;;500.05;201.48;;;;;;;;;;5112262;28;20029;-82
2021/12/16 17:23:28;;;;;;;455.77;176.77;;;;;;;;;;5128947;28;20028;-81
2021/12/16 17:25:55;;;;;;;421.52;154.60;;;;;;;;;;5112117;28;20019;-81
2021/12/16 17:30:34;;;;;;;305.25;114.20;;;;;;;;;;5131546;27;20432;-82
2021/12/16 17:33:01;;;;;;;294.92;115.32;;;;;;;;;;5112634;28;20470;-82
2021/12/16 17:35:33;;;;;;;302.75;116.72;;;;;;;;;;5112127;28;20088;-82
2021/12/16 17:38:15;;;;;;;283.88;110.68;;;;;;;;;;5112594;28;20059;-83
2021/12/16 17:40:46;;;;;;;266.85;104.28;;;;;;;;;;5112979;28;20024;-83
2021/12/16 17:43:26;;;;;;;244.82;96.60;;;;;;;;;;5112904;28;20027;-83
2021/12/16 17:45:58;;;;;;;261.88;103.93;;;;;;;;;;5112187;28;20023;-83
2021/12/16 17:48:29;;;;;;;280.13;110.47;;;;;;;;;;5112415;28;20435;-83